Time;durP1;ratioP1;P1;durP2;ratioP2;P2;SDS_P1;SDS_P2;PMS_P1;PMS_P2;Temp;Humidity;BMP_temperature;BMP_pressure;BME280_temperature;BME280_humidity;BME280_pressure;Samples;Min_cycle;Max_cycle;Signal;HPM_P1;HPM_P2
2021/10/30 00:02:23;;;;;;;11.53;9.47;;;;;;;;;;4933956;29;20257;-83
2021/10/30 00:04:52;;;;;;;10.37;8.77;;;;;;;;;;4934901;29;20210;-82
2021/10/30 00:07:19;;;;;;;11.07;9.07;;;;;;;;;;4934532;29;20202;-83
2021/10/30 00:09:46;;;;;;;13.20;10.03;;;;;;;;;;4934524;29;20226;-82
2021/10/30 00:12:14;;;;;;;9.63;8.63;;;;;;;;;;4934476;29;20202;-82
2021/10/30 00:14:43;;;;;;;11.10;9.10;;;;;;;;;;4933743;29;20210;-82
2021/10/30 00:17:10;;;;;;;10.53;9.00;;;;;;;;;;4934623;29;20589;-82
2021/10/30 00:19:38;;;;;;;11.63;9.30;;;;;;;;;;4934731;29;20195;-82
2021/10/30 00:22:07;;;;;;;9.70;8.67;;;;;;;;;;4934362;29;20576;-82
2021/10/30 00:24:35;;;;;;;10.27;9.20;;;;;;;;;;4934466;29;20694;-82
2021/10/30 00:27:03;;;;;;;10.43;9.10;;;;;;;;;;4934119;29;20198;-82
2021/10/30 00:29:30;;;;;;;9.60;8.57;;;;;;;;;;4934346;29;20266;-82
2021/10/30 00:31:58;;;;;;;10.67;7.97;;;;;;;;;;4934240;29;20202;-82
2021/10/30 00:34:26;;;;;;;10.63;8.73;;;;;;;;;;4934546;29;20739;-82
2021/10/30 00:36:53;;;;;;;10.43;9.30;;;;;;;;;;4934109;29;20265;-82
2021/10/30 00:39:22;;;;;;;10.93;9.57;;;;;;;;;;4934549;29;20589;-83
2021/10/30 00:41:51;;;;;;;16.57;9.67;;;;;;;;;;4934222;29;20233;-82
2021/10/30 00:44:19;;;;;;;11.57;9.93;;;;;;;;;;4934177;29;20238;-82
2021/10/30 00:46:48;;;;;;;9.73;8.27;;;;;;;;;;4934164;29;20242;-82
2021/10/30 00:49:16;;;;;;;9.97;8.37;;;;;;;;;;4934257;29;20242;-83
2021/10/30 00:51:47;;;;;;;8.90;8.00;;;;;;;;;;4933910;29;20242;-82
2021/10/30 00:54:15;;;;;;;10.47;8.10;;;;;;;;;;4934969;29;20195;-82
2021/10/30 00:56:45;;;;;;;9.00;7.77;;;;;;;;;;4934244;29;20262;-83
2021/10/30 00:59:15;;;;;;;9.43;8.43;;;;;;;;;;4934417;29;20203;-82
2021/10/30 01:01:44;;;;;;;9.40;8.40;;;;;;;;;;4934106;29;20278;-82
2021/10/30 01:04:11;;;;;;;10.23;9.17;;;;;;;;;;4933436;29;20234;-82
2021/10/30 01:06:42;;;;;;;10.97;9.67;;;;;;;;;;4926392;29;20339;-82
2021/10/30 01:09:09;;;;;;;9.80;8.40;;;;;;;;;;4934027;29;20371;-82
2021/10/30 01:11:36;;;;;;;10.70;8.63;;;;;;;;;;4934003;29;20207;-82
2021/10/30 01:14:06;;;;;;;10.20;8.37;;;;;;;;;;4934171;29;20804;-83
2021/10/30 01:16:33;;;;;;;8.87;7.87;;;;;;;;;;4933895;29;20210;-82
2021/10/30 01:19:00;;;;;;;8.63;7.83;;;;;;;;;;4934417;29;20206;-82
2021/10/30 01:21:30;;;;;;;9.53;8.20;;;;;;;;;;4933985;29;20209;-82
2021/10/30 01:23:58;;;;;;;10.87;8.73;;;;;;;;;;4933843;29;20195;-82
2021/10/30 01:26:25;;;;;;;9.67;8.77;;;;;;;;;;4937299;29;20232;-82
2021/10/30 01:28:53;;;;;;;10.27;9.27;;;;;;;;;;4937281;29;20213;-82
2021/10/30 01:31:21;;;;;;;9.60;8.07;;;;;;;;;;4936938;29;20209;-82
2021/10/30 01:33:49;;;;;;;8.07;7.27;;;;;;;;;;4937616;29;20203;-81
2021/10/30 01:36:19;;;;;;;8.90;8.10;;;;;;;;;;4937151;29;20202;-82
2021/10/30 01:38:48;;;;;;;11.37;7.37;;;;;;;;;;4937220;29;20262;-81
2021/10/30 01:41:16;;;;;;;10.93;8.57;;;;;;;;;;4936789;29;20672;-82
2021/10/30 01:43:43;;;;;;;8.50;7.60;;;;;;;;;;4937376;29;20257;-82
2021/10/30 01:46:10;;;;;;;10.47;8.17;;;;;;;;;;4937098;29;20683;-82
2021/10/30 01:48:39;;;;;;;9.10;8.17;;;;;;;;;;4936701;29;20206;-82
2021/10/30 01:51:07;;;;;;;10.57;8.00;;;;;;;;;;4936749;29;20222;-82
2021/10/30 01:53:35;;;;;;;9.17;8.27;;;;;;;;;;4936986;29;20265;-82
2021/10/30 01:56:04;;;;;;;8.90;7.77;;;;;;;;;;4936893;29;20210;-82
2021/10/30 01:58:31;;;;;;;8.33;7.53;;;;;;;;;;4936844;29;20205;-82
2021/10/30 02:01:00;;;;;;;8.87;7.80;;;;;;;;;;4936532;29;20199;-82
2021/10/30 02:03:29;;;;;;;10.83;8.50;;;;;;;;;;4936299;29;20206;-82
2021/10/30 02:05:57;;;;;;;11.43;9.63;;;;;;;;;;4936511;29;20211;-82
2021/10/30 02:08:24;;;;;;;11.03;9.00;;;;;;;;;;4936736;29;20242;-82
2021/10/30 02:10:51;;;;;;;10.83;9.03;;;;;;;;;;4936052;29;20234;-82
2021/10/30 02:13:21;;;;;;;20.60;12.73;;;;;;;;;;4936880;29;20269;-82
2021/10/30 02:15:48;;;;;;;25.53;18.03;;;;;;;;;;4936426;29;20213;-82
2021/10/30 02:18:15;;;;;;;15.63;11.30;;;;;;;;;;4936815;29;20269;-82
2021/10/30 02:20:43;;;;;;;11.73;10.47;;;;;;;;;;4936101;29;20245;-82
2021/10/30 02:23:10;;;;;;;21.13;14.53;;;;;;;;;;4932390;29;20203;-81
2021/10/30 02:25:37;;;;;;;40.10;24.03;;;;;;;;;;4936050;29;20210;-81
2021/10/30 02:28:05;;;;;;;39.23;23.23;;;;;;;;;;4936528;29;20207;-82
2021/10/30 02:30:34;;;;;;;19.73;14.40;;;;;;;;;;4935997;29;20230;-82
2021/10/30 02:33:01;;;;;;;19.63;13.60;;;;;;;;;;4936175;29;20206;-82
2021/10/30 02:35:28;;;;;;;15.97;12.03;;;;;;;;;;4936114;29;20210;-81
2021/10/30 02:37:55;;;;;;;16.93;11.93;;;;;;;;;;4935602;29;20206;-82
2021/10/30 02:40:23;;;;;;;17.90;11.63;;;;;;;;;;4935843;29;20206;-81
2021/10/30 02:42:50;;;;;;;14.33;10.73;;;;;;;;;;4935771;29;20603;-82
2021/10/30 02:45:17;;;;;;;10.27;9.27;;;;;;;;;;4935969;29;20207;-82
2021/10/30 02:47:46;;;;;;;11.43;8.53;;;;;;;;;;4935852;29;20672;-83
2021/10/30 02:50:13;;;;;;;9.80;8.63;;;;;;;;;;4934399;29;20325;-82
2021/10/30 02:52:41;;;;;;;13.83;10.30;;;;;;;;;;4935346;29;20281;-82
2021/10/30 02:55:09;;;;;;;11.13;10.03;;;;;;;;;;4935405;29;20256;-81
2021/10/30 02:57:36;;;;;;;11.57;9.73;;;;;;;;;;4935802;29;20718;-81
2021/10/30 03:00:05;;;;;;;12.57;10.93;;;;;;;;;;4935439;29;20203;-82
2021/10/30 03:02:32;;;;;;;11.47;9.60;;;;;;;;;;4935361;29;20238;-81
2021/10/30 03:05:01;;;;;;;11.53;9.30;;;;;;;;;;4935365;29;20202;-81
2021/10/30 03:07:28;;;;;;;11.47;10.27;;;;;;;;;;4935437;29;20289;-82
2021/10/30 03:09:55;;;;;;;15.67;10.83;;;;;;;;;;4935618;29;20614;-81
2021/10/30 03:12:23;;;;;;;12.77;9.50;;;;;;;;;;4935019;29;20257;-81
2021/10/30 03:14:50;;;;;;;9.43;8.53;;;;;;;;;;4935369;29;20203;-82
2021/10/30 03:17:17;;;;;;;9.53;8.40;;;;;;;;;;4935361;29;20241;-82
2021/10/30 03:19:45;;;;;;;12.03;9.40;;;;;;;;;;4935172;29;20278;-81
2021/10/30 03:22:13;;;;;;;14.70;12.07;;;;;;;;;;4934881;29;20215;-81
2021/10/30 03:24:42;;;;;;;11.83;10.43;;;;;;;;;;4935414;29;20203;-81
2021/10/30 03:27:09;;;;;;;10.13;9.13;;;;;;;;;;4935145;29;20290;-81
2021/10/30 03:29:37;;;;;;;9.53;8.57;;;;;;;;;;4935178;29;20266;-81
2021/10/30 03:32:04;;;;;;;11.93;9.73;;;;;;;;;;4935077;29;20257;-81
2021/10/30 03:34:32;;;;;;;11.43;10.23;;;;;;;;;;4935457;29;20290;-81
2021/10/30 03:36:59;;;;;;;12.57;9.17;;;;;;;;;;4934769;29;20203;-80
2021/10/30 03:39:28;;;;;;;11.77;10.37;;;;;;;;;;4935392;29;20202;-81
2021/10/30 03:41:55;;;;;;;11.03;9.20;;;;;;;;;;4934523;29;20199;-82
2021/10/30 03:44:22;;;;;;;23.60;17.70;;;;;;;;;;4934646;29;20202;-82
2021/10/30 03:46:49;;;;;;;19.67;17.23;;;;;;;;;;4934653;29;20693;-82
2021/10/30 03:49:17;;;;;;;21.50;16.03;;;;;;;;;;4934648;29;20238;-82
2021/10/30 03:51:44;;;;;;;16.90;12.53;;;;;;;;;;4935068;29;20211;-82
2021/10/30 03:54:11;;;;;;;13.87;11.17;;;;;;;;;;4934549;29;20218;-82
2021/10/30 03:56:40;;;;;;;15.40;11.97;;;;;;;;;;4934628;29;20206;-82
2021/10/30 03:59:07;;;;;;;11.00;8.93;;;;;;;;;;4934931;29;20594;-82
2021/10/30 04:01:34;;;;;;;9.50;8.47;;;;;;;;;;4934084;29;20705;-82
2021/10/30 04:04:02;;;;;;;11.20;8.97;;;;;;;;;;4934483;29;20210;-81
2021/10/30 04:06:29;;;;;;;11.33;8.67;;;;;;;;;;4934337;29;20249;-80
2021/10/30 04:08:56;;;;;;;9.77;8.77;;;;;;;;;;4934739;29;20206;-80
2021/10/30 04:11:24;;;;;;;9.03;8.13;;;;;;;;;;4934292;29;20316;-80
2021/10/30 04:13:52;;;;;;;10.13;9.13;;;;;;;;;;4934645;29;20227;-81
2021/10/30 04:16:19;;;;;;;11.60;10.40;;;;;;;;;;4933880;29;20593;-81
2021/10/30 04:18:47;;;;;;;13.57;11.60;;;;;;;;;;4934532;29;20238;-81
2021/10/30 04:21:15;;;;;;;13.73;12.23;;;;;;;;;;4934421;29;20297;-81
2021/10/30 04:23:42;;;;;;;12.27;10.07;;;;;;;;;;4934119;29;20206;-81
2021/10/30 04:26:09;;;;;;;13.67;10.60;;;;;;;;;;4934400;29;20252;-80
2021/10/30 04:28:36;;;;;;;11.97;9.03;;;;;;;;;;4934673;29;20236;-81
2021/10/30 04:31:06;;;;;;;30.80;23.87;;;;;;;;;;4934341;29;20726;-81
2021/10/30 04:33:35;;;;;;;23.10;19.60;;;;;;;;;;4934899;29;20203;-81
2021/10/30 04:36:04;;;;;;;42.73;36.77;;;;;;;;;;4934134;29;20210;-81
2021/10/30 04:38:31;;;;;;;29.00;24.87;;;;;;;;;;4934430;29;20207;-81
2021/10/30 04:40:59;;;;;;;18.60;15.77;;;;;;;;;;4934336;29;20210;-81
2021/10/30 04:43:26;;;;;;;24.97;21.90;;;;;;;;;;4934344;29;20202;-81
2021/10/30 04:45:53;;;;;;;30.63;19.73;;;;;;;;;;4934480;29;20254;-81
2021/10/30 04:48:22;;;;;;;30.97;24.40;;;;;;;;;;4934661;29;20207;-81
2021/10/30 04:50:49;;;;;;;39.03;28.27;;;;;;;;;;4934211;29;20238;-81
2021/10/30 04:53:17;;;;;;;18.30;15.33;;;;;;;;;;4934292;29;20266;-81
2021/10/30 04:55:44;;;;;;;57.53;39.53;;;;;;;;;;4934296;29;20281;-81
2021/10/30 04:58:11;;;;;;;52.83;38.63;;;;;;;;;;4934283;29;20261;-80
2021/10/30 05:00:38;;;;;;;59.57;44.50;;;;;;;;;;4936490;29;20261;-80
2021/10/30 05:03:06;;;;;;;45.57;31.93;;;;;;;;;;4937878;29;20203;-81
2021/10/30 05:05:34;;;;;;;21.67;17.27;;;;;;;;;;4937708;29;20226;-81
2021/10/30 05:08:02;;;;;;;125.60;111.03;;;;;;;;;;4937835;29;20257;-81
2021/10/30 05:10:29;;;;;;;93.30;80.07;;;;;;;;;;4937923;29;20698;-81
2021/10/30 05:12:56;;;;;;;37.33;31.57;;;;;;;;;;4937803;29;20293;-81
2021/10/30 05:15:23;;;;;;;15.57;13.57;;;;;;;;;;4937216;29;20199;-81
2021/10/30 05:17:51;;;;;;;11.37;10.20;;;;;;;;;;4937722;29;20261;-81
2021/10/30 05:20:18;;;;;;;11.43;8.63;;;;;;;;;;4937362;29;20203;-81
2021/10/30 05:22:47;;;;;;;10.97;8.97;;;;;;;;;;4937716;29;20281;-81
2021/10/30 05:25:14;;;;;;;13.43;12.10;;;;;;;;;;4937657;29;20238;-80
2021/10/30 05:27:41;;;;;;;15.83;14.33;;;;;;;;;;4937616;29;20630;-82
2021/10/30 05:30:09;;;;;;;15.43;13.93;;;;;;;;;;4937191;29;20199;-81
2021/10/30 05:32:36;;;;;;;20.07;16.67;;;;;;;;;;4937416;29;20270;-81
2021/10/30 05:35:04;;;;;;;12.37;11.10;;;;;;;;;;4937169;29;20234;-81
2021/10/30 05:37:32;;;;;;;13.07;9.97;;;;;;;;;;4937421;29;20677;-81
2021/10/30 05:40:00;;;;;;;10.93;9.07;;;;;;;;;;4937325;29;20210;-81
2021/10/30 05:42:28;;;;;;;32.87;29.53;;;;;;;;;;4937326;29;20199;-81
2021/10/30 05:44:55;;;;;;;14.27;12.73;;;;;;;;;;4937150;29;20597;-81
2021/10/30 05:47:23;;;;;;;13.10;10.90;;;;;;;;;;4937115;29;20568;-81
2021/10/30 05:49:52;;;;;;;9.90;8.47;;;;;;;;;;4936932;29;20246;-81
2021/10/30 05:52:19;;;;;;;10.53;9.17;;;;;;;;;;4937024;29;20230;-81
2021/10/30 05:54:46;;;;;;;9.53;8.53;;;;;;;;;;4936854;29;20285;-81
2021/10/30 05:57:15;;;;;;;10.00;9.00;;;;;;;;;;4936920;29;20680;-82
2021/10/30 05:59:42;;;;;;;11.00;9.87;;;;;;;;;;4936906;29;20674;-81
2021/10/30 06:02:11;;;;;;;12.70;8.70;;;;;;;;;;4937037;29;20241;-82
2021/10/30 06:04:39;;;;;;;13.33;12.03;;;;;;;;;;4936897;29;20310;-81
2021/10/30 06:07:06;;;;;;;15.83;14.13;;;;;;;;;;4937053;29;20234;-81
2021/10/30 06:09:34;;;;;;;20.17;18.07;;;;;;;;;;4936796;29;20198;-81
2021/10/30 06:12:01;;;;;;;20.53;16.87;;;;;;;;;;4935340;29;20325;-81
2021/10/30 06:14:30;;;;;;;18.43;11.47;;;;;;;;;;4936734;29;20234;-81
2021/10/30 06:16:57;;;;;;;13.37;8.57;;;;;;;;;;4936587;29;20261;-81
2021/10/30 06:19:25;;;;;;;12.43;10.97;;;;;;;;;;4935286;29;20210;-81
2021/10/30 06:21:52;;;;;;;14.17;12.20;;;;;;;;;;4936146;29;20214;-81
2021/10/30 06:24:20;;;;;;;12.00;10.80;;;;;;;;;;4936573;29;20210;-81
2021/10/30 06:26:47;;;;;;;10.40;9.00;;;;;;;;;;4936354;29;20210;-81
2021/10/30 06:29:14;;;;;;;13.23;11.83;;;;;;;;;;4936520;29;20245;-81
2021/10/30 06:31:43;;;;;;;12.57;10.57;;;;;;;;;;4935925;29;20322;-81
2021/10/30 06:34:11;;;;;;;11.90;10.70;;;;;;;;;;4936396;29;20248;-81
2021/10/30 06:36:39;;;;;;;12.27;10.80;;;;;;;;;;4936225;29;20592;-81
2021/10/30 06:39:06;;;;;;;10.20;8.90;;;;;;;;;;4936463;29;20210;-82
2021/10/30 06:41:34;;;;;;;10.73;9.63;;;;;;;;;;4935871;29;20206;-81
2021/10/30 06:44:02;;;;;;;32.37;9.57;;;;;;;;;;4936395;29;20206;-81
2021/10/30 06:46:30;;;;;;;11.10;8.73;;;;;;;;;;4935941;29;20696;-81
2021/10/30 06:48:59;;;;;;;9.30;8.10;;;;;;;;;;4935780;29;20202;-81
2021/10/30 06:51:26;;;;;;;8.70;7.80;;;;;;;;;;4934948;29;20240;-81
2021/10/30 06:53:53;;;;;;;9.87;8.63;;;;;;;;;;4935833;29;20209;-82
2021/10/30 06:56:21;;;;;;;9.57;7.67;;;;;;;;;;4935589;29;20289;-82
2021/10/30 06:58:48;;;;;;;9.63;6.93;;;;;;;;;;4936245;29;20213;-81
2021/10/30 07:01:16;;;;;;;8.50;7.47;;;;;;;;;;4935695;29;20271;-81
2021/10/30 07:03:44;;;;;;;7.77;6.97;;;;;;;;;;4935833;29;20234;-82
2021/10/30 07:06:12;;;;;;;13.40;6.70;;;;;;;;;;4935801;29;20202;-82
2021/10/30 07:08:40;;;;;;;9.40;8.33;;;;;;;;;;4935913;29;20234;-82
2021/10/30 07:11:07;;;;;;;19.00;13.43;;;;;;;;;;4935264;29;20222;-81
2021/10/30 07:13:34;;;;;;;9.73;8.40;;;;;;;;;;4935654;29;20234;-81
2021/10/30 07:16:01;;;;;;;12.10;8.57;;;;;;;;;;4935774;29;20238;-81
2021/10/30 07:18:29;;;;;;;8.97;6.60;;;;;;;;;;4935841;29;20234;-81
2021/10/30 07:20:56;;;;;;;7.53;6.83;;;;;;;;;;4935197;29;20650;-81
2021/10/30 07:23:25;;;;;;;12.50;8.10;;;;;;;;;;4935206;29;20202;-81
2021/10/30 07:25:52;;;;;;;10.27;7.90;;;;;;;;;;4935199;29;20210;-81
2021/10/30 07:28:19;;;;;;;6.77;6.03;;;;;;;;;;4935089;29;20286;-82
2021/10/30 07:30:46;;;;;;;6.33;5.73;;;;;;;;;;4952757;29;20214;-81
2021/10/30 07:33:14;;;;;;;7.67;6.10;;;;;;;;;;4954504;29;20198;-82
2021/10/30 07:35:41;;;;;;;10.20;7.63;;;;;;;;;;4927245;29;20235;-82
2021/10/30 07:38:08;;;;;;;11.03;7.97;;;;;;;;;;4941423;29;20254;-82
2021/10/30 07:40:37;;;;;;;8.87;6.87;;;;;;;;;;4934866;29;20242;-82
2021/10/30 07:43:05;;;;;;;10.13;7.10;;;;;;;;;;4928510;29;20254;-82
2021/10/30 07:45:32;;;;;;;10.80;6.30;;;;;;;;;;4928470;29;20218;-82
2021/10/30 07:48:00;;;;;;;10.60;7.00;;;;;;;;;;4935234;29;20211;-83
2021/10/30 07:50:28;;;;;;;8.13;6.70;;;;;;;;;;4930011;29;20270;-82
2021/10/30 07:52:56;;;;;;;9.00;7.93;;;;;;;;;;4924220;29;20242;-82
2021/10/30 07:55:23;;;;;;;9.93;7.73;;;;;;;;;;4920909;29;20286;-82
2021/10/30 07:57:52;;;;;;;11.33;8.70;;;;;;;;;;4927798;29;20238;-81
2021/10/30 08:00:19;;;;;;;7.40;6.50;;;;;;;;;;4919391;29;20665;-83
2021/10/30 08:02:48;;;;;;;8.90;7.87;;;;;;;;;;4915783;29;20200;-82
2021/10/30 08:05:15;;;;;;;19.63;15.17;;;;;;;;;;4927033;29;20289;-83
2021/10/30 08:07:44;;;;;;;7.83;7.03;;;;;;;;;;4927773;29;20238;-83
2021/10/30 08:10:12;;;;;;;6.43;5.73;;;;;;;;;;4932235;29;20206;-82
2021/10/30 08:12:40;;;;;;;6.23;5.70;;;;;;;;;;4924153;29;20222;-82
2021/10/30 08:15:10;;;;;;;8.20;6.07;;;;;;;;;;4934752;29;20257;-82
2021/10/30 08:17:38;;;;;;;7.00;5.93;;;;;;;;;;4927158;29;20633;-82
2021/10/30 08:20:06;;;;;;;7.87;7.07;;;;;;;;;;4919577;29;20667;-81
2021/10/30 08:22:34;;;;;;;8.87;6.13;;;;;;;;;;4930973;29;20248;-82
2021/10/30 08:25:01;;;;;;;8.00;6.87;;;;;;;;;;4934773;29;20202;-82
2021/10/30 08:27:28;;;;;;;6.40;5.80;;;;;;;;;;4934775;29;20627;-82
2021/10/30 08:29:56;;;;;;;9.77;8.70;;;;;;;;;;4934289;29;20602;-83
2021/10/30 08:32:25;;;;;;;11.50;8.30;;;;;;;;;;4934328;29;20234;-83
2021/10/30 08:34:52;;;;;;;8.03;7.23;;;;;;;;;;4936063;29;20202;-82
2021/10/30 08:37:20;;;;;;;9.77;7.50;;;;;;;;;;4938446;29;20224;-82
2021/10/30 08:39:47;;;;;;;10.60;7.27;;;;;;;;;;4938159;29;20206;-82
2021/10/30 08:42:14;;;;;;;9.50;6.23;;;;;;;;;;4939108;29;20241;-82
2021/10/30 08:44:41;;;;;;;6.67;6.07;;;;;;;;;;4938501;29;20261;-82
2021/10/30 08:47:09;;;;;;;7.90;6.07;;;;;;;;;;4938190;29;20293;-82
2021/10/30 08:49:39;;;;;;;6.20;5.40;;;;;;;;;;4938176;29;20278;-82
2021/10/30 08:52:07;;;;;;;7.30;6.60;;;;;;;;;;4938205;29;20286;-82
2021/10/30 08:54:35;;;;;;;6.03;5.43;;;;;;;;;;4938524;29;20203;-82
2021/10/30 08:57:03;;;;;;;10.47;7.37;;;;;;;;;;4938104;29;20242;-82
2021/10/30 08:59:41;;;;;;;18.27;16.47;;;;;;;;;;4938145;29;20210;-82
2021/10/30 09:02:10;;;;;;;7.70;6.90;;;;;;;;;;4938025;29;20691;-82
2021/10/30 09:04:39;;;;;;;6.53;5.90;;;;;;;;;;4937330;29;20203;-82
2021/10/30 09:07:08;;;;;;;11.23;10.13;;;;;;;;;;4938200;29;20199;-82
2021/10/30 09:09:37;;;;;;;13.67;12.33;;;;;;;;;;4938028;29;20203;-82
2021/10/30 09:12:05;;;;;;;8.97;8.10;;;;;;;;;;4937545;29;20298;-83
2021/10/30 09:14:34;;;;;;;7.80;6.27;;;;;;;;;;4937913;29;20241;-82
2021/10/30 09:17:17;;;;;;;9.20;6.03;;;;;;;;;;4937451;29;20211;-81
2021/10/30 09:19:47;;;;;;;10.37;6.80;;;;;;;;;;4930753;29;20238;-82
2021/10/30 09:22:16;;;;;;;10.77;8.30;;;;;;;;;;4937720;29;20222;-82
2021/10/30 09:24:54;;;;;;;7.37;6.57;;;;;;;;;;4937598;29;20206;-82
2021/10/30 09:27:45;;;;;;;7.30;6.50;;;;;;;;;;4937645;29;20594;-82
2021/10/30 09:30:13;;;;;;;8.23;5.97;;;;;;;;;;4937739;29;20191;-82
2021/10/30 09:32:41;;;;;;;8.70;6.43;;;;;;;;;;4937845;29;20230;-82
2021/10/30 09:35:11;;;;;;;9.30;8.00;;;;;;;;;;4937629;29;20214;-83
2021/10/30 09:37:39;;;;;;;13.30;12.03;;;;;;;;;;4930916;29;20198;-82
2021/10/30 09:40:24;;;;;;;9.90;8.13;;;;;;;;;;4938136;29;20238;-81
2021/10/30 09:43:14;;;;;;;10.80;6.50;;;;;;;;;;4938117;29;20293;-82
2021/10/30 09:45:46;;;;;;;8.97;6.50;;;;;;;;;;4937385;29;20206;-82
2021/10/30 09:48:15;;;;;;;7.67;6.10;;;;;;;;;;4934698;29;20209;-83
2021/10/30 09:50:44;;;;;;;6.93;6.33;;;;;;;;;;4935914;29;20731;-83
2021/10/30 09:53:26;;;;;;;8.40;7.70;;;;;;;;;;4947244;29;20272;-84
2021/10/30 09:55:54;;;;;;;16.20;14.00;;;;;;;;;;4922377;29;20205;-84
2021/10/30 09:58:35;;;;;;;13.07;10.03;;;;;;;;;;4937006;29;20207;-83
2021/10/30 10:01:04;;;;;;;8.80;6.77;;;;;;;;;;4936504;29;20283;-83
2021/10/30 10:03:33;;;;;;;9.73;8.67;;;;;;;;;;4935882;29;20234;-84
2021/10/30 10:06:04;;;;;;;9.83;8.83;;;;;;;;;;4935865;29;20209;-84
2021/10/30 10:08:33;;;;;;;8.57;6.90;;;;;;;;;;4937100;29;20203;-84
2021/10/30 10:11:00;;;;;;;10.10;9.30;;;;;;;;;;4936940;29;20280;-84
2021/10/30 10:13:27;;;;;;;10.73;9.80;;;;;;;;;;4936579;29;20264;-85
2021/10/30 10:15:55;;;;;;;14.23;11.57;;;;;;;;;;4936474;29;20240;-84
2021/10/30 10:18:23;;;;;;;8.80;7.77;;;;;;;;;;4936716;29;20258;-85
2021/10/30 10:20:50;;;;;;;7.77;7.03;;;;;;;;;;4936493;29;20207;-84
2021/10/30 10:23:20;;;;;;;10.17;8.77;;;;;;;;;;4936915;29;20727;-84
2021/10/30 10:25:52;;;;;;;9.10;8.20;;;;;;;;;;4936350;29;20343;-83
2021/10/30 10:28:24;;;;;;;29.30;19.20;;;;;;;;;;4936155;29;20219;-84
2021/10/30 10:31:00;;;;;;;18.03;13.67;;;;;;;;;;4936394;29;20298;-84
2021/10/30 10:33:29;;;;;;;14.90;9.73;;;;;;;;;;4936325;29;20226;-85
2021/10/30 10:36:20;;;;;;;19.57;13.97;;;;;;;;;;4936337;29;20207;-84
2021/10/30 10:39:11;;;;;;;15.77;10.23;;;;;;;;;;4925502;29;20241;-84
2021/10/30 10:41:56;;;;;;;11.23;6.60;;;;;;;;;;4936251;29;20269;-84
2021/10/30 10:45:02;;;;;;;12.33;9.20;;;;;;;;;;4946224;29;20203;-84
2021/10/30 10:47:50;;;;;;;8.10;7.30;;;;;;;;;;4944315;29;20289;-84
2021/10/30 10:50:22;;;;;;;23.30;18.83;;;;;;;;;;4945577;29;20244;-85
2021/10/30 10:53:13;;;;;;;9.30;8.23;;;;;;;;;;4946966;29;20247;-84
2021/10/30 10:56:10;;;;;;;7.30;5.10;;;;;;;;;;4946206;29;20196;-84
2021/10/30 11:02:17;;;;;;;8.50;6.60;;;;;;;;;;4940594;29;20310;-84
2021/10/30 11:05:26;;;;;;;8.73;7.40;;;;;;;;;;4928873;29;20200;-84
2021/10/30 11:08:27;;;;;;;15.53;14.00;;;;;;;;;;4930617;29;20207;-84
2021/10/30 11:11:20;;;;;;;8.93;6.30;;;;;;;;;;4930459;29;20196;-84
2021/10/30 11:13:53;;;;;;;6.30;5.80;;;;;;;;;;4933896;29;20263;-84
2021/10/30 11:16:28;;;;;;;18.37;14.10;;;;;;;;;;4928566;29;20207;-84
2021/10/30 11:19:20;;;;;;;8.13;7.27;;;;;;;;;;4953798;29;20190;-84
2021/10/30 11:21:49;;;;;;;7.30;6.60;;;;;;;;;;4953721;29;20228;-85
2021/10/30 11:24:22;;;;;;;8.87;7.97;;;;;;;;;;4953240;29;20198;-84
2021/10/30 11:27:01;;;;;;;10.00;8.30;;;;;;;;;;4953606;29;20201;-84
2021/10/30 11:29:29;;;;;;;12.63;11.53;;;;;;;;;;4953364;29;20189;-85
2021/10/30 11:31:58;;;;;;;9.10;8.13;;;;;;;;;;4952582;29;20197;-84
2021/10/30 11:34:26;;;;;;;10.27;8.83;;;;;;;;;;4953531;29;20210;-85
2021/10/30 11:36:56;;;;;;;8.97;8.07;;;;;;;;;;4953032;29;20672;-85
2021/10/30 11:39:24;;;;;;;8.07;7.27;;;;;;;;;;4953413;29;20241;-85
2021/10/30 11:41:51;;;;;;;12.20;10.13;;;;;;;;;;4953272;29;20289;-83
2021/10/30 11:44:22;;;;;;;9.10;8.20;;;;;;;;;;4953517;29;20246;-86
2021/10/30 11:46:51;;;;;;;10.17;8.27;;;;;;;;;;4954198;29;20237;-85
2021/10/30 11:49:25;;;;;;;17.63;13.23;;;;;;;;;;4935590;29;20236;-85
2021/10/30 11:51:52;;;;;;;9.93;8.93;;;;;;;;;;4934807;29;20191;-86
2021/10/30 11:54:23;;;;;;;12.90;10.57;;;;;;;;;;4935093;29;20227;-85
2021/10/30 11:56:50;;;;;;;7.27;6.57;;;;;;;;;;4934737;29;20207;-84
2021/10/30 11:59:19;;;;;;;13.47;10.80;;;;;;;;;;4935187;29;20212;-86
2021/10/30 12:01:48;;;;;;;13.23;11.23;;;;;;;;;;4934530;29;20240;-86
2021/10/30 12:04:18;;;;;;;10.73;9.20;;;;;;;;;;4935432;29;20233;-85
2021/10/30 12:06:47;;;;;;;13.40;8.97;;;;;;;;;;4934729;29;20665;-85
2021/10/30 12:09:16;;;;;;;14.20;10.67;;;;;;;;;;4934736;29;20204;-85
2021/10/30 12:11:44;;;;;;;13.93;10.67;;;;;;;;;;4934361;29;20215;-85
2021/10/30 12:14:12;;;;;;;8.77;7.97;;;;;;;;;;4934801;29;20222;-85
2021/10/30 12:16:41;;;;;;;10.77;9.67;;;;;;;;;;4927026;29;20198;-86
2021/10/30 12:19:09;;;;;;;8.53;7.83;;;;;;;;;;4934733;29;20277;-85
2021/10/30 12:21:37;;;;;;;7.93;7.20;;;;;;;;;;4934406;29;20228;-85
2021/10/30 12:24:09;;;;;;;9.37;8.13;;;;;;;;;;4935028;29;20634;-86
2021/10/30 12:26:53;;;;;;;10.67;9.53;;;;;;;;;;4934514;29;20727;-84
2021/10/30 12:29:23;;;;;;;16.70;15.20;;;;;;;;;;4931489;29;20277;-85
2021/10/30 12:32:04;;;;;;;15.10;13.60;;;;;;;;;;4935024;29;20193;-85
2021/10/30 12:34:32;;;;;;;16.47;14.77;;;;;;;;;;4928061;29;20264;-86
2021/10/30 12:37:01;;;;;;;26.33;19.97;;;;;;;;;;4931263;29;20210;-83
2021/10/30 12:39:28;;;;;;;16.00;12.83;;;;;;;;;;4927959;29;20229;-83
2021/10/30 12:42:01;;;;;;;10.27;9.23;;;;;;;;;;4934144;29;20321;-83
2021/10/30 12:44:32;;;;;;;27.50;18.33;;;;;;;;;;4932659;29;20224;-82
2021/10/30 12:47:02;;;;;;;9.37;8.47;;;;;;;;;;4929310;29;20332;-83
2021/10/30 12:49:34;;;;;;;11.50;8.47;;;;;;;;;;4928340;29;20231;-84
2021/10/30 12:52:07;;;;;;;10.73;8.00;;;;;;;;;;4917709;29;20307;-84
2021/10/30 12:54:37;;;;;;;15.23;11.83;;;;;;;;;;4915010;29;20219;-84
2021/10/30 12:57:05;;;;;;;8.60;7.83;;;;;;;;;;4915140;29;20207;-84
2021/10/30 12:59:41;;;;;;;13.43;11.80;;;;;;;;;;4915441;29;20210;-84
2021/10/30 13:02:09;;;;;;;11.80;9.10;;;;;;;;;;4915014;29;20279;-83
2021/10/30 13:04:40;;;;;;;17.03;12.97;;;;;;;;;;4915548;29;20632;-83
2021/10/30 13:07:09;;;;;;;24.93;22.47;;;;;;;;;;4915521;29;20213;-83
2021/10/30 13:09:37;;;;;;;12.47;9.73;;;;;;;;;;4915525;29;20206;-84
2021/10/30 13:12:05;;;;;;;15.30;13.87;;;;;;;;;;4915099;29;20221;-83
2021/10/30 13:14:34;;;;;;;22.07;17.60;;;;;;;;;;4914995;29;20242;-84
2021/10/30 13:17:02;;;;;;;16.03;13.23;;;;;;;;;;4915019;29;20297;-83
2021/10/30 13:19:29;;;;;;;16.63;14.10;;;;;;;;;;4915217;29;20201;-84
2021/10/30 13:21:58;;;;;;;13.20;10.67;;;;;;;;;;4917402;29;20274;-83
2021/10/30 13:24:25;;;;;;;12.57;9.33;;;;;;;;;;4918867;29;20240;-83
2021/10/30 13:26:52;;;;;;;10.27;8.70;;;;;;;;;;4918503;29;20717;-83
2021/10/30 13:29:20;;;;;;;13.07;10.47;;;;;;;;;;4918573;29;20558;-83
2021/10/30 13:31:47;;;;;;;20.17;15.97;;;;;;;;;;4917685;29;20268;-84
2021/10/30 13:34:15;;;;;;;17.43;11.43;;;;;;;;;;4918452;29;20273;-84
2021/10/30 13:36:42;;;;;;;35.17;24.33;;;;;;;;;;4918081;29;20249;-84
2021/10/30 13:39:13;;;;;;;25.13;18.67;;;;;;;;;;4914150;29;20235;-83
2021/10/30 13:41:40;;;;;;;20.20;17.50;;;;;;;;;;4918542;29;20292;-83
2021/10/30 13:44:08;;;;;;;43.10;25.33;;;;;;;;;;4918213;29;20217;-83
2021/10/30 13:46:36;;;;;;;21.77;17.27;;;;;;;;;;4915938;29;20298;-83
2021/10/30 13:49:05;;;;;;;17.80;15.40;;;;;;;;;;4919628;29;20683;-83
2021/10/30 13:51:32;;;;;;;13.70;10.63;;;;;;;;;;4961927;28;20201;-83
2021/10/30 13:53:59;;;;;;;42.20;29.90;;;;;;;;;;4962852;28;20294;-84
2021/10/30 13:56:29;;;;;;;42.23;31.73;;;;;;;;;;4975132;28;20263;-84
2021/10/30 13:58:57;;;;;;;55.60;37.87;;;;;;;;;;4975384;28;20238;-84
2021/10/30 14:01:25;;;;;;;20.93;16.13;;;;;;;;;;4967541;28;20209;-85
2021/10/30 14:03:52;;;;;;;103.13;59.97;;;;;;;;;;4955770;29;20229;-84
2021/10/30 14:06:21;;;;;;;94.87;57.73;;;;;;;;;;4955512;29;20204;-85
2021/10/30 14:08:48;;;;;;;42.63;30.53;;;;;;;;;;4955899;29;20217;-85
2021/10/30 14:11:16;;;;;;;22.83;15.93;;;;;;;;;;4955840;29;20202;-83
2021/10/30 14:13:45;;;;;;;22.17;15.07;;;;;;;;;;4956263;29;20691;-83
2021/10/30 14:16:13;;;;;;;28.80;25.13;;;;;;;;;;4955014;29;20204;-83
2021/10/30 14:18:41;;;;;;;36.43;24.83;;;;;;;;;;4956250;29;20207;-83
2021/10/30 14:21:08;;;;;;;13.07;11.80;;;;;;;;;;4955556;29;20296;-83
2021/10/30 14:23:37;;;;;;;14.77;11.83;;;;;;;;;;4956195;29;20566;-83
2021/10/30 14:26:05;;;;;;;26.83;19.80;;;;;;;;;;4955377;29;20204;-83
2021/10/30 14:28:33;;;;;;;41.97;28.80;;;;;;;;;;4955687;29;20208;-83
2021/10/30 14:31:03;;;;;;;90.87;57.97;;;;;;;;;;4955264;29;20673;-83
2021/10/30 14:33:30;;;;;;;63.33;36.03;;;;;;;;;;4954229;28;20320;-83
2021/10/30 14:35:59;;;;;;;46.27;33.70;;;;;;;;;;4955536;29;20229;-83
2021/10/30 14:38:27;;;;;;;47.60;38.53;;;;;;;;;;4955495;29;20285;-83
2021/10/30 14:40:55;;;;;;;34.73;23.00;;;;;;;;;;4955066;29;20199;-83
2021/10/30 14:43:23;;;;;;;28.50;21.73;;;;;;;;;;4955010;29;20260;-83
2021/10/30 14:45:51;;;;;;;25.43;17.67;;;;;;;;;;4954927;29;20236;-83